createdAt,value
2017-11-18T00:00:37.366Z,43.60
2017-11-18T00:03:04.846Z,54.23
2017-11-18T00:05:32.482Z,45.72
2017-11-18T00:08:00.955Z,57.00
2017-11-18T00:10:28.414Z,53.63
2017-11-18T00:12:55.911Z,60.20
2017-11-18T00:15:23.866Z,48.03
2017-11-18T00:17:51.313Z,41.43
2017-11-18T00:20:18.770Z,47.10
2017-11-18T00:22:46.216Z,45.33
2017-11-18T00:25:14.502Z,46.90
2017-11-18T00:27:41.938Z,53.30
2017-11-18T00:30:09.418Z,44.70
2017-11-18T00:32:36.886Z,51.08
2017-11-18T00:35:05.103Z,44.72
2017-11-18T00:37:32.661Z,60.17
2017-11-18T00:40:00.346Z,48.83
2017-11-18T00:42:28.372Z,45.25
2017-11-18T00:44:55.818Z,51.80
2017-11-18T00:47:23.973Z,59.95
2017-11-18T00:49:51.474Z,65.70
2017-11-18T00:52:18.909Z,48.17
2017-11-18T00:54:47.296Z,49.83
2017-11-18T00:57:18.707Z,56.27
2017-11-18T00:59:46.694Z,52.80
2017-11-18T01:02:14.126Z,58.73
2017-11-18T01:04:42.341Z,54.42
2017-11-18T01:07:09.786Z,53.33
2017-11-18T01:09:38.003Z,52.57
2017-11-18T01:12:16.949Z,57.07
2017-11-18T01:14:44.418Z,47.33
2017-11-18T01:17:11.899Z,45.03
2017-11-18T01:19:39.368Z,54.60
2017-11-18T01:22:07.765Z,59.50
2017-11-18T01:24:35.217Z,58.60
2017-11-18T01:27:02.694Z,68.07
2017-11-18T01:29:30.129Z,54.23
2017-11-18T01:31:57.569Z,64.18
2017-11-18T01:34:25.297Z,45.70
2017-11-18T01:36:52.758Z,44.13
2017-11-18T01:39:20.726Z,59.23
2017-11-18T01:41:48.963Z,44.57
2017-11-18T01:44:16.425Z,44.07
2017-11-18T01:46:43.916Z,51.10
2017-11-18T01:49:11.513Z,50.37
2017-11-18T01:51:38.974Z,43.63
2017-11-18T01:54:06.421Z,46.77
2017-11-18T01:56:33.941Z,46.83
2017-11-18T01:59:06.014Z,49.53
2017-11-18T02:01:33.482Z,50.58
2017-11-18T02:04:00.930Z,56.17
2017-11-18T02:06:28.400Z,50.60
2017-11-18T02:08:55.867Z,53.77
2017-11-18T02:11:23.614Z,56.50
2017-11-18T02:13:51.057Z,57.38
2017-11-18T02:16:22.820Z,49.84
2017-11-18T02:18:50.447Z,52.90
2017-11-18T02:21:17.963Z,50.10
2017-11-18T02:23:45.517Z,56.23
2017-11-18T02:26:12.959Z,63.00
2017-11-18T02:28:40.402Z,57.13
2017-11-18T02:31:12.479Z,48.83
2017-11-18T02:33:40.067Z,66.95
2017-11-18T02:36:09.238Z,52.50
2017-11-18T02:38:36.691Z,63.30
2017-11-18T02:41:05.677Z,71.07
2017-11-18T02:43:38.848Z,48.17
2017-11-18T02:46:06.427Z,67.10
2017-11-18T02:48:35.562Z,57.03
2017-11-18T02:51:04.718Z,56.10
2017-11-18T02:53:32.186Z,71.77
2017-11-18T02:55:59.662Z,75.73
2017-11-18T02:58:27.111Z,76.43
2017-11-18T03:00:54.573Z,78.12
2017-11-18T03:03:22.014Z,86.28
2017-11-18T03:05:49.498Z,93.20
2017-11-18T03:08:17.063Z,100.40
2017-11-18T03:10:45.266Z,99.50
2017-11-18T03:13:13.644Z,72.80
2017-11-18T03:15:44.213Z,85.80
2017-11-18T03:18:11.654Z,96.80
2017-11-18T03:20:39.108Z,94.77
2017-11-18T03:23:06.774Z,93.10
2017-11-18T03:25:34.253Z,110.40
2017-11-18T03:28:02.410Z,110.63
2017-11-18T03:30:29.853Z,87.33
2017-11-18T03:32:57.555Z,92.18
2017-11-18T03:35:24.999Z,87.87
2017-11-18T03:37:52.485Z,88.80
2017-11-18T03:40:20.523Z,85.43
2017-11-18T03:42:47.983Z,93.93
2017-11-18T03:45:15.673Z,108.85
2017-11-18T03:47:44.227Z,113.50
2017-11-18T03:50:11.691Z,94.28
2017-11-18T03:52:40.366Z,91.68
2017-11-18T03:55:07.986Z,99.50
2017-11-18T03:57:35.561Z,110.13
2017-11-18T04:00:03.209Z,106.97
2017-11-18T04:02:30.666Z,77.97
2017-11-18T04:04:58.223Z,100.23
2017-11-18T04:07:25.675Z,83.47
2017-11-18T04:09:54.078Z,86.03
2017-11-18T04:12:21.522Z,87.40
2017-11-18T04:14:48.973Z,75.28
2017-11-18T04:17:19.726Z,70.78
2017-11-18T04:19:48.857Z,69.77
2017-11-18T04:22:17.094Z,67.20
2017-11-18T04:24:44.539Z,65.72
2017-11-18T04:27:12.005Z,64.12
2017-11-18T04:29:39.487Z,70.30
2017-11-18T04:32:07.888Z,67.95
2017-11-18T04:34:35.308Z,54.80
2017-11-18T04:37:02.871Z,55.53
2017-11-18T04:39:30.322Z,42.13
2017-11-18T04:41:57.793Z,54.47
2017-11-18T04:44:25.581Z,45.97
2017-11-18T04:46:57.310Z,46.15
2017-11-18T04:49:24.802Z,60.57
2017-11-18T04:51:52.534Z,52.07
2017-11-18T04:54:20.194Z,49.27
2017-11-18T04:56:47.645Z,58.73
2017-11-18T04:59:15.124Z,40.97
2017-11-18T05:01:52.989Z,39.20
2017-11-18T05:04:21.227Z,37.33
2017-11-18T05:06:48.697Z,35.27
2017-11-18T05:09:16.143Z,40.57
2017-11-18T05:11:43.853Z,36.40
2017-11-18T05:14:11.327Z,31.50
2017-11-18T05:16:44.541Z,37.93
2017-11-18T05:19:13.691Z,37.35
2017-11-18T05:21:42.525Z,34.67
2017-11-18T05:24:10.055Z,35.83
2017-11-18T05:26:37.518Z,40.50
2017-11-18T05:29:05.293Z,36.00
2017-11-18T05:31:32.741Z,34.05
2017-11-18T05:34:03.985Z,32.00
2017-11-18T05:36:32.368Z,39.03
2017-11-18T05:38:59.838Z,32.50
2017-11-18T05:41:27.485Z,35.60
2017-11-18T05:43:54.922Z,32.90
2017-11-18T05:46:26.389Z,33.50
2017-11-18T05:48:53.827Z,33.05
2017-11-18T05:51:22.510Z,37.80
2017-11-18T05:53:50.014Z,32.27
2017-11-18T05:56:17.482Z,34.13
2017-11-18T05:58:44.917Z,25.52
2017-11-18T06:01:12.424Z,30.97
2017-11-18T06:03:39.870Z,34.33
2017-11-18T06:06:07.346Z,31.37
2017-11-18T06:08:34.967Z,43.30
2017-11-18T06:11:02.421Z,31.53
2017-11-18T06:13:30.378Z,33.40
2017-11-18T06:15:57.884Z,33.63
2017-11-18T06:18:25.363Z,32.60
2017-11-18T06:20:52.834Z,31.80
2017-11-18T06:23:20.279Z,24.42
2017-11-18T06:25:47.788Z,30.43
2017-11-18T06:28:15.234Z,26.77
2017-11-18T06:30:42.727Z,30.02
2017-11-18T06:33:10.222Z,32.40
2017-11-18T06:35:38.621Z,31.05
2017-11-18T06:38:06.057Z,39.47
2017-11-18T06:40:33.542Z,36.13
2017-11-18T06:43:01.172Z,29.73
2017-11-18T06:45:28.618Z,30.23
2017-11-18T06:48:00.201Z,33.57
2017-11-18T06:50:27.995Z,35.28
2017-11-18T06:52:55.732Z,31.05
2017-11-18T06:55:23.377Z,30.75
2017-11-18T06:57:50.846Z,34.90
2017-11-18T07:00:18.326Z,35.93
2017-11-18T07:02:54.573Z,33.80
2017-11-18T07:05:22.227Z,34.03
2017-11-18T07:07:49.689Z,27.87
2017-11-18T07:10:17.692Z,26.50
2017-11-18T07:12:45.139Z,27.70
2017-11-18T07:15:12.601Z,30.53
2017-11-18T07:17:40.115Z,29.00
2017-11-18T07:20:07.738Z,26.98
2017-11-18T07:22:35.201Z,32.67
2017-11-18T07:25:02.710Z,25.13
2017-11-18T07:27:31.849Z,24.43
2017-11-18T07:29:59.326Z,25.20
2017-11-18T07:32:26.998Z,32.10
2017-11-18T07:34:54.442Z,24.83
2017-11-18T07:37:24.997Z,25.53
2017-11-18T07:39:52.454Z,24.97
2017-11-18T07:42:21.755Z,27.58
2017-11-18T07:44:49.227Z,30.33
2017-11-18T07:47:16.971Z,29.43
2017-11-18T07:49:49.872Z,28.40
2017-11-18T07:52:17.946Z,27.13
2017-11-18T07:54:46.409Z,35.68
2017-11-18T07:57:13.851Z,33.33
2017-11-18T07:59:41.338Z,33.13
2017-11-18T08:02:08.823Z,34.13
2017-11-18T08:04:36.543Z,35.47
2017-11-18T08:07:04.945Z,36.10
2017-11-18T08:09:32.403Z,32.25
2017-11-18T08:12:00.057Z,28.63
2017-11-18T08:14:28.265Z,32.43
2017-11-18T08:16:55.730Z,31.83
2017-11-18T08:19:23.180Z,27.20
2017-11-18T08:21:50.649Z,28.20
2017-11-18T08:24:18.339Z,34.65
2017-11-18T08:26:46.105Z,33.53
2017-11-18T08:29:14.482Z,20.80
2017-11-18T08:31:42.112Z,23.33
2017-11-18T08:34:14.017Z,26.27
2017-11-18T08:36:42.986Z,20.30
2017-11-18T08:39:10.469Z,23.53
2017-11-18T08:41:38.634Z,22.85
2017-11-18T08:44:06.284Z,21.55
2017-11-18T08:46:33.777Z,18.97
2017-11-18T08:49:01.250Z,14.63
2017-11-18T08:51:28.736Z,17.25
2017-11-18T08:53:56.324Z,19.50
2017-11-18T08:56:23.790Z,18.50
2017-11-18T08:58:51.233Z,19.93
2017-11-18T09:01:18.710Z,21.00
2017-11-18T09:03:47.927Z,19.83
2017-11-18T09:06:20.286Z,18.07
2017-11-18T09:08:47.826Z,21.00
2017-11-18T09:11:15.306Z,18.40
2017-11-18T09:13:42.775Z,17.77
2017-11-18T09:16:10.217Z,21.17
2017-11-18T09:18:37.720Z,21.20
2017-11-18T09:21:05.172Z,17.60
2017-11-18T09:23:32.677Z,16.90
2017-11-18T09:26:01.442Z,12.30
2017-11-18T09:28:29.126Z,11.30
2017-11-18T09:30:56.890Z,16.90
2017-11-18T09:33:24.374Z,18.53
2017-11-18T09:35:51.801Z,13.02
2017-11-18T09:38:19.273Z,27.80
2017-11-18T09:40:46.739Z,19.43
2017-11-18T09:43:14.567Z,23.10
2017-11-18T09:45:42.238Z,22.58
2017-11-18T09:48:09.710Z,25.13
2017-11-18T09:50:37.166Z,23.57
2017-11-18T09:53:09.847Z,19.77
2017-11-18T09:55:37.320Z,22.45
2017-11-18T09:58:04.971Z,24.77
2017-11-18T10:00:32.513Z,16.23
2017-11-18T10:02:59.983Z,22.65
2017-11-18T10:05:27.421Z,29.63
2017-11-18T10:07:58.260Z,18.37
2017-11-18T10:10:25.714Z,15.47
2017-11-18T10:12:53.418Z,22.45
2017-11-18T10:15:20.902Z,28.62
2017-11-18T10:17:48.608Z,27.43
2017-11-18T10:20:16.082Z,23.10
2017-11-18T10:22:43.525Z,27.27
2017-11-18T10:25:11.731Z,21.52
2017-11-18T10:27:39.215Z,22.80
2017-11-18T10:30:07.294Z,15.50
2017-11-18T10:32:34.753Z,15.70
2017-11-18T10:35:02.240Z,17.63
2017-11-18T10:37:33.952Z,27.50
2017-11-18T10:40:02.390Z,18.12
2017-11-18T10:42:30.826Z,17.37
2017-11-18T10:44:58.493Z,19.20
2017-11-18T10:47:26.686Z,22.58
2017-11-18T10:49:54.158Z,16.80
2017-11-18T10:52:25.784Z,15.93
2017-11-18T10:54:54.601Z,26.80
2017-11-18T10:57:22.085Z,23.10
2017-11-18T10:59:49.565Z,25.67
2017-11-18T11:02:17.066Z,19.33
2017-11-18T11:04:44.500Z,20.90
2017-11-18T11:07:11.982Z,19.30
2017-11-18T11:09:39.446Z,27.53
2017-11-18T11:12:07.443Z,24.75
2017-11-18T11:14:35.450Z,24.36
2017-11-18T11:17:02.894Z,29.90
2017-11-18T11:19:30.352Z,29.50
2017-11-18T11:22:01.630Z,25.73
2017-11-18T11:24:29.078Z,26.17
2017-11-18T11:26:56.541Z,28.02
2017-11-18T11:29:24.854Z,22.85
2017-11-18T11:31:52.299Z,20.33
2017-11-18T11:34:19.748Z,22.03
2017-11-18T11:36:47.990Z,25.73
2017-11-18T11:39:15.431Z,24.77
2017-11-18T11:41:43.986Z,21.80
2017-11-18T11:44:11.418Z,14.40
2017-11-18T11:46:38.926Z,18.67
2017-11-18T11:49:06.472Z,14.90
2017-11-18T11:51:33.957Z,19.17
2017-11-18T11:54:01.433Z,24.40
2017-11-18T11:56:29.649Z,15.53
2017-11-18T11:58:58.686Z,21.35
2017-11-18T12:01:26.166Z,19.13
2017-11-18T12:03:53.609Z,22.43
2017-11-18T12:06:22.300Z,27.62
2017-11-18T12:08:49.775Z,16.97
2017-11-18T12:11:18.054Z,20.03
2017-11-18T12:13:45.493Z,20.77
2017-11-18T12:16:13.979Z,17.17
2017-11-18T12:18:41.430Z,18.55
2017-11-18T12:21:09.367Z,21.60
2017-11-18T12:23:36.959Z,14.40
2017-11-18T12:26:04.403Z,10.03
2017-11-18T12:28:31.875Z,15.95
2017-11-18T12:30:59.339Z,18.67
2017-11-18T12:33:26.778Z,17.63
2017-11-18T12:35:55.165Z,23.12
2017-11-18T12:38:26.536Z,22.93
2017-11-18T12:40:53.993Z,15.00
2017-11-18T12:43:21.463Z,20.80
2017-11-18T12:45:49.866Z,19.93
2017-11-18T12:48:17.332Z,23.37
2017-11-18T12:50:44.827Z,14.43
2017-11-18T12:53:12.354Z,26.92
2017-11-18T12:55:39.829Z,18.30
2017-11-18T12:58:07.382Z,24.33
2017-11-18T13:00:34.877Z,21.63
2017-11-18T13:03:03.262Z,19.10
2017-11-18T13:05:30.798Z,22.50
2017-11-18T13:07:58.268Z,30.13
2017-11-18T13:10:25.735Z,23.10
2017-11-18T13:12:53.208Z,25.90
2017-11-18T13:15:20.850Z,22.10
2017-11-18T13:17:48.311Z,24.33
2017-11-18T13:20:16.601Z,28.47
2017-11-18T13:22:44.822Z,24.60
2017-11-18T13:25:12.466Z,20.47
2017-11-18T13:27:39.938Z,21.57
2017-11-18T13:30:07.384Z,22.33
2017-11-18T13:32:34.978Z,26.45
2017-11-18T13:35:02.447Z,28.33
2017-11-18T13:37:30.442Z,21.67
2017-11-18T13:39:57.887Z,23.17
2017-11-18T13:42:25.438Z,27.33
2017-11-18T13:44:52.890Z,21.07
2017-11-18T13:47:20.353Z,17.73
2017-11-18T13:49:47.849Z,22.95
2017-11-18T13:52:15.474Z,24.27
2017-11-18T13:54:42.954Z,22.50
2017-11-18T13:57:15.074Z,23.67
2017-11-18T13:59:42.525Z,17.73
2017-11-18T14:02:10.290Z,22.67
2017-11-18T14:04:37.781Z,18.80
2017-11-18T14:07:05.409Z,18.30
2017-11-18T14:09:33.814Z,17.23
2017-11-18T14:12:05.111Z,19.75
2017-11-18T14:14:32.563Z,20.00
2017-11-18T14:17:00.058Z,27.37
2017-11-18T14:19:27.494Z,24.33
2017-11-18T14:21:54.981Z,20.87
2017-11-18T14:24:23.976Z,28.58
2017-11-18T14:26:51.634Z,17.73
2017-11-18T14:29:19.102Z,20.53
2017-11-18T14:31:46.578Z,26.14
2017-11-18T14:34:14.062Z,22.90
2017-11-18T14:36:42.111Z,24.77
2017-11-18T14:39:09.598Z,26.73
2017-11-18T14:41:40.064Z,24.57
2017-11-18T14:44:07.518Z,18.87
2017-11-18T14:46:34.977Z,24.97
2017-11-18T14:49:02.444Z,21.83
2017-11-18T14:51:29.918Z,21.00
2017-11-18T14:53:57.370Z,16.30
2017-11-18T14:56:28.496Z,26.92
2017-11-18T14:58:56.413Z,25.33
2017-11-18T15:01:23.884Z,27.00
2017-11-18T15:03:51.326Z,23.90
2017-11-18T15:06:18.798Z,30.60
2017-11-18T15:08:46.252Z,26.73
2017-11-18T15:11:24.911Z,25.90
2017-11-18T15:13:52.385Z,22.42
2017-11-18T15:16:35.627Z,27.92
2017-11-18T15:19:08.657Z,31.70
2017-11-18T15:21:41.851Z,29.37
2017-11-18T15:24:15.282Z,21.43
2017-11-18T15:26:51.439Z,25.42
2017-11-18T15:29:24.473Z,24.70
2017-11-18T15:31:57.678Z,27.33
2017-11-18T15:34:31.334Z,30.07
2017-11-18T15:37:05.886Z,31.20
2017-11-18T15:39:33.370Z,30.23
2017-11-18T15:42:00.798Z,26.83
2017-11-18T15:47:34.149Z,24.25
2017-11-18T15:50:07.306Z,25.30
2017-11-18T15:55:43.318Z,22.25
2017-11-18T15:58:29.279Z,25.85
2017-11-18T16:01:02.776Z,21.43
2017-11-18T16:03:31.134Z,18.40
2017-11-18T16:05:58.587Z,20.83
2017-11-18T16:08:26.743Z,19.48
2017-11-18T16:10:54.283Z,23.65
2017-11-18T16:13:21.734Z,16.87
2017-11-18T16:15:49.203Z,17.03
2017-11-18T16:18:16.630Z,9.13
2017-11-18T16:20:44.118Z,14.48
2017-11-18T16:23:11.563Z,16.13
2017-11-18T16:25:39.069Z,12.67
2017-11-18T16:28:06.515Z,14.60
2017-11-18T16:30:34.026Z,13.63
2017-11-18T16:33:01.463Z,19.47
2017-11-18T16:35:30.393Z,12.90
2017-11-18T16:37:57.825Z,15.80
2017-11-18T16:40:25.707Z,13.47
2017-11-18T16:42:58.593Z,13.20
2017-11-18T16:45:26.076Z,13.80
2017-11-18T16:47:54.754Z,6.85
2017-11-18T16:50:22.255Z,13.43
2017-11-18T16:52:49.739Z,12.77
2017-11-18T16:55:17.276Z,13.07
2017-11-18T16:57:44.703Z,11.80
2017-11-18T17:00:14.542Z,10.85
2017-11-18T17:02:42.007Z,15.43
2017-11-18T17:05:09.473Z,11.90
2017-11-18T17:07:37.151Z,9.70
2017-11-18T17:10:04.662Z,10.20
2017-11-18T17:12:33.572Z,10.93
2017-11-18T17:15:01.039Z,10.03
2017-11-18T17:17:28.504Z,16.92
2017-11-18T17:19:55.973Z,16.92
2017-11-18T17:22:23.414Z,11.80
2017-11-18T17:24:50.868Z,11.33
2017-11-18T17:27:18.346Z,8.20
2017-11-18T17:29:47.490Z,10.57
2017-11-18T17:32:15.163Z,9.00
2017-11-18T17:34:42.622Z,13.20
2017-11-18T17:37:10.075Z,10.80
2017-11-18T17:39:37.533Z,16.10
2017-11-18T17:42:06.497Z,9.00
2017-11-18T17:44:33.961Z,14.17
2017-11-18T17:47:01.692Z,7.63
2017-11-18T17:49:29.134Z,12.27
2017-11-18T17:51:56.671Z,11.20
2017-11-18T17:54:24.105Z,9.00
2017-11-18T17:56:51.578Z,15.43
2017-11-18T17:59:20.175Z,10.52
2017-11-18T18:01:47.618Z,10.10
2017-11-18T18:04:15.095Z,13.27
2017-11-18T18:06:42.530Z,10.52
2017-11-18T18:09:11.563Z,13.02
2017-11-18T18:11:39.043Z,10.37
2017-11-18T18:14:07.238Z,7.32
2017-11-18T18:16:34.729Z,11.33
2017-11-18T18:19:02.518Z,13.03
2017-11-18T18:21:29.980Z,10.32
2017-11-18T18:23:57.446Z,10.55
2017-11-18T18:26:26.466Z,12.07
2017-11-18T18:28:54.072Z,15.85
2017-11-18T18:31:21.534Z,15.47
2017-11-18T18:33:49.194Z,9.33
2017-11-18T18:36:16.988Z,15.25
2017-11-18T18:38:44.727Z,9.50
2017-11-18T18:41:12.184Z,13.90
2017-11-18T18:43:39.664Z,10.60
2017-11-18T18:46:07.148Z,12.73
2017-11-18T18:48:34.650Z,14.90
2017-11-18T18:51:02.137Z,12.82
2017-11-18T18:53:30.255Z,18.85
2017-11-18T18:55:58.139Z,14.82
2017-11-18T18:58:26.244Z,11.52
2017-11-18T19:00:53.919Z,13.77
2017-11-18T19:03:22.588Z,18.23
2017-11-18T19:05:50.052Z,11.70
2017-11-18T19:08:17.656Z,13.05
2017-11-18T19:10:45.359Z,7.82
2017-11-18T19:13:12.825Z,12.80
2017-11-18T19:15:40.285Z,16.43
2017-11-18T19:18:09.270Z,12.43
2017-11-18T19:20:36.745Z,14.60
2017-11-18T19:23:04.756Z,12.40
2017-11-18T19:25:34.164Z,19.65
2017-11-18T19:28:02.061Z,12.50
2017-11-18T19:30:29.790Z,12.30
2017-11-18T19:32:57.913Z,14.20
2017-11-18T19:35:25.459Z,12.98
2017-11-18T19:37:53.222Z,10.30
2017-11-18T19:40:20.951Z,10.93
2017-11-18T19:42:48.508Z,15.27
2017-11-18T19:45:15.974Z,20.33
2017-11-18T19:47:43.405Z,13.07
2017-11-18T19:50:10.981Z,12.27
2017-11-18T19:52:38.439Z,14.00
2017-11-18T19:55:08.174Z,14.95
2017-11-18T19:57:38.032Z,13.65
2017-11-18T20:00:05.551Z,10.40
2017-11-18T20:02:33.315Z,14.27
2017-11-18T20:05:02.276Z,11.75
2017-11-18T20:07:29.710Z,16.07
2017-11-18T20:09:57.172Z,15.53
2017-11-18T20:12:24.678Z,18.30
2017-11-18T20:14:52.127Z,14.13
2017-11-18T20:17:21.250Z,8.87
2017-11-18T20:19:48.718Z,14.60
2017-11-18T20:22:16.172Z,12.98
2017-11-18T20:24:43.714Z,14.27
2017-11-18T20:27:11.310Z,10.73
2017-11-18T20:29:40.433Z,13.65
2017-11-18T20:32:08.051Z,12.32
2017-11-18T20:34:35.724Z,12.53
2017-11-18T20:37:03.159Z,11.33
2017-11-18T20:39:31.361Z,12.60
2017-11-18T20:41:59.689Z,12.05
2017-11-18T20:44:27.147Z,11.85
2017-11-18T20:46:54.787Z,14.27
2017-11-18T20:49:25.725Z,11.50
2017-11-18T20:51:53.753Z,14.23
2017-11-18T20:54:21.263Z,9.97
2017-11-18T20:56:48.731Z,10.87
2017-11-18T20:59:16.162Z,16.45
2017-11-18T21:01:48.263Z,10.55
2017-11-18T21:04:22.746Z,20.70
2017-11-18T21:06:50.224Z,11.38
2017-11-18T21:09:18.007Z,12.55
2017-11-18T21:11:45.451Z,15.23
2017-11-18T21:14:13.838Z,12.70
2017-11-18T21:16:41.299Z,14.17
2017-11-18T21:19:08.756Z,15.50
2017-11-18T21:21:36.226Z,13.70
2017-11-18T21:24:03.878Z,13.30
2017-11-18T21:26:31.324Z,11.60
2017-11-18T21:28:58.794Z,11.70
2017-11-18T21:31:26.253Z,7.47
2017-11-18T21:33:57.947Z,14.55
2017-11-18T21:36:26.402Z,16.10
2017-11-18T21:38:54.606Z,11.45
2017-11-18T21:41:22.543Z,7.40
2017-11-18T21:43:50.002Z,10.90
2017-11-18T21:46:18.466Z,9.70
2017-11-18T21:48:46.841Z,9.88
2017-11-18T21:51:14.490Z,14.77
2017-11-18T21:53:41.962Z,12.97
2017-11-18T21:56:09.431Z,11.93
2017-11-18T21:58:36.877Z,12.20
2017-11-18T22:01:04.334Z,11.60
2017-11-18T22:03:35.231Z,12.70
2017-11-18T22:06:02.878Z,10.73
2017-11-18T22:08:30.795Z,15.32
2017-11-18T22:10:58.229Z,18.98
2017-11-18T22:13:25.695Z,16.97
2017-11-18T22:15:53.166Z,13.77
2017-11-18T22:18:24.627Z,19.95
2017-11-18T22:20:52.088Z,11.27
2017-11-18T22:23:20.336Z,22.20
2017-11-18T22:25:47.798Z,7.65
2017-11-18T22:28:15.475Z,12.23
2017-11-18T22:30:43.108Z,10.60
2017-11-18T22:33:10.558Z,10.77
2017-11-18T22:35:38.022Z,10.53
2017-11-18T22:38:05.611Z,12.43
2017-11-18T22:40:33.190Z,14.73
2017-11-18T22:43:01.304Z,12.70
2017-11-18T22:45:28.779Z,14.70
2017-11-18T22:47:56.214Z,9.50
2017-11-18T22:50:23.646Z,8.57
2017-11-18T22:52:51.706Z,8.50
2017-11-18T22:55:19.226Z,15.60
2017-11-18T22:57:48.389Z,9.13
2017-11-18T23:00:15.821Z,8.05
2017-11-18T23:02:44.081Z,11.30
2017-11-18T23:05:12.444Z,18.83
2017-11-18T23:07:39.986Z,10.83
2017-11-18T23:10:07.454Z,8.97
2017-11-18T23:12:34.927Z,20.48
2017-11-18T23:15:02.451Z,8.13
2017-11-18T23:17:29.952Z,7.77
2017-11-18T23:19:57.410Z,9.70
2017-11-18T23:22:26.706Z,8.17
2017-11-18T23:24:54.163Z,8.07
2017-11-18T23:27:21.602Z,4.80
2017-11-18T23:29:49.058Z,13.43
2017-11-18T23:32:16.506Z,12.75
2017-11-18T23:34:43.967Z,11.57
2017-11-18T23:37:11.431Z,6.43
2017-11-18T23:39:39.623Z,9.57
2017-11-18T23:42:07.085Z,7.30
2017-11-18T23:44:35.437Z,4.65
2017-11-18T23:47:02.904Z,8.10
2017-11-18T23:49:30.346Z,6.43
2017-11-18T23:51:58.469Z,17.62
2017-11-18T23:54:26.705Z,6.60
2017-11-18T23:56:54.258Z,8.37
2017-11-18T23:59:21.739Z,10.80
